Home > Products > Valid Products > TAF

000
FTUS43 KJKL 230900 AAA
TAFLOZ
TAF AMD
KLOZ 230912Z 2309/2406 VRB03KT P6SM OVC025
     FM231300 VRB03KT P6SM SCT025 SCT050
     FM231600 VRB03KT P6SM FEW050=



000
FTUS43 KJKL 230900 AAA
TAFSME
TAF AMD
KSME 230910Z 2309/2406 VRB03KT P6SM OVC030
     FM231300 VRB03KT P6SM SCT030 SCT050=



000
FTUS43 KJKL 230500
TAFSME
TAF
KSME 230525Z 2306/2406 VRB03KT P6SM OVC030
     FM230900 VRB03KT P6SM SCT027 SCT050
     FM231300 VRB03KT P6SM FEW050=



000
FTUS43 KJKL 230500
TAFLOZ
TAF
KLOZ 230525Z 2306/2406 VRB03KT P6SM OVC025
     FM231000 VRB03KT P6SM SCT025 SCT050
     FM231400 VRB03KT P6SM FEW050=



000
FTUS43 KJKL 230500
TAFJKL
TAF
KJKL 230525Z 2306/2406 VRB03KT P6SM OVC020
     FM231300 VRB03KT P6SM SCT030 BKN040
     FM231600 VRB03KT P6SM FEW050=



000
FTUS43 KJKL 222300
TAFJKL
TAF
KJKL 222338Z 2300/2324 VRB03KT P6SM OVC035
     FM230100 VRB03KT P6SM BKN025
     FM230900 00000KT P6SM SCT020
     FM231300 VRB03KT P6SM SCT050=



000
FTUS43 KJKL 222300
TAFLOZ
TAF
KLOZ 222338Z 2300/2324 VRB03KT P6SM OVC035
     FM230100 VRB03KT P6SM BKN027
     FM230700 00000KT P6SM SCT025
     FM231300 VRB03KT P6SM SCT050=



000
FTUS43 KJKL 222300
TAFSME
TAF
KSME 222338Z 2300/2324 VRB03KT P6SM OVC035
     FM230100 VRB03KT P6SM BKN029
     FM230700 00000KT P6SM SCT027
     FM231300 VRB03KT P6SM SCT050=



000
FTUS43 KJKL 222000 AAA
TAFSME
TAF AMD
KSME 222002Z 2220/2318 04004KT P6SM BKN024
     FM222200 02005KT P6SM SCT025 BKN040
     FM230300 00000KT P6SM FEW030
     FM230900 00000KT 4SM BR SCT050
     FM231300 04002KT P6SM SCT050=



000
FTUS43 KJKL 222000 AAA
TAFLOZ
TAF AMD
KLOZ 222002Z 2220/2318 02005KT P6SM BKN020
     FM222200 02005KT P6SM SCT025 BKN045
     FM230300 03003KT P6SM SCT045
     FM230900 00000KT 4SM BR SCT050
     FM231300 04002KT P6SM SCT050=



000
FTUS43 KJKL 221700 RRA
TAFJKL
TAF
KJKL 221745Z 2218/2318 35003KT P6SM SCT015 OVC025
     FM222200 34004KT P6SM SCT025 SCT050
     FM230300 VRB03KT P6SM FEW030
     FM230900 00000KT 4SM BR SCT050
     FM231300 04002KT P6SM SCT050=



000
FTUS43 KJKL 221700 RRA
TAFSME
TAF
KSME 221745Z 2218/2318 04004KT P6SM BKN027
     FM222000 02005KT P6SM SCT025 BKN040
     FM230300 00000KT P6SM FEW030
     FM230900 00000KT 4SM BR SCT050
     FM231300 04002KT P6SM SCT050=



000
FTUS43 KJKL 221700 RRA
TAFLOZ
TAF
KLOZ 221745Z 2218/2318 02005KT P6SM BKN016 BKN025
     FM222200 02005KT P6SM SCT025 BKN045
     FM230300 03003KT P6SM SCT045
     FM230900 00000KT 4SM BR SCT050
     FM231300 04002KT P6SM SCT050=



000
FTUS43 KJKL 221700 RRA
TAFJKL
TAF
KJKL 221745Z 2218/2318 35003KT P6SM SCT015 OVC025
     FM222200 34004KT P6SM SCT025 SCT050
     FM230300 VRB03KT P6SM FEW030
     FM230900 00000KT 4SM BR SCT050
     FM231300 04002KT P6SM SCT050=



000
FTUS43 KJKL 221700 RRA
TAFLOZ
TAF
KLOZ 221745Z 2218/2318 02005KT P6SM BKN016 BKN025
     FM222200 02005KT P6SM SCT025 BKN045
     FM230300 03003KT P6SM SCT045
     FM230900 00000KT 4SM BR SCT050
     FM231300 04002KT P6SM SCT050=



000
FTUS43 KJKL 221700 RRA
TAFSME
TAF
KSME 221745Z 2218/2318 04004KT P6SM BKN027
     FM222000 02005KT P6SM SCT025 BKN040
     FM230300 00000KT P6SM FEW030
     FM230900 00000KT 4SM BR SCT050
     FM231300 04002KT P6SM SCT050=



000
FTUS43 KJKL 221500 AAC
TAFLOZ
TAF AMD
KLOZ 221545Z 2216/2312 02005KT P6SM SCT010 BKN015 OVC025
     FM221600 02005KT P6SM SCT015 BKN025
     FM221700 02005KT P6SM SCT025 BKN045
     FM230300 03003KT P6SM FEW030=



000
FTUS43 KJKL 221500 AAC
TAFLOZ
TAF AMD
KLOZ 221545Z 2216/2312 02005KT P6SM SCT010 BKN015 OVC025
     FM221600 02005KT P6SM SCT015 BKN025
     FM221700 02005KT P6SM SCT025 BKN045
     FM230300 03003KT P6SM FEW030=



000
FTUS43 KJKL 221500 AAA
TAFSME
TAF AMD
KSME 221543Z 2216/2312 01003KT P6SM BKN021
     FM221600 04004KT P6SM BKN025
     FM221700 02005KT P6SM SCT025 BKN045
     FM230300 00000KT P6SM FEW030=



000
FTUS43 KJKL 221500 AAA
TAFSME
TAF AMD
KSME 221543Z 2216/2312 01003KT P6SM BKN021
     FM221600 04004KT P6SM BKN025
     FM221700 02005KT P6SM SCT025 BKN045
     FM230300 00000KT P6SM FEW030=



000
FTUS43 KJKL 221500 AAC
TAFJKL
TAF AMD
KJKL 221520Z 2215/2312 VRB03KT P6SM OVC010
     FM221600 35003KT P6SM SCT010 BKN025
     FM221700 34004KT P6SM SCT025 SCT050
     FM230300 VRB03KT P6SM FEW030=



000
FTUS43 KJKL 221500 AAB
TAFLOZ
TAF AMD
KLOZ 221516Z 2215/2312 36003KT P6SM BKN012 OVC035
     FM221600 02005KT P6SM SCT015 BKN045
     FM230300 03003KT P6SM FEW030=



000
FTUS43 KJKL 221400 AAB
TAFJKL
TAF AMD
KJKL 221457Z 2215/2312 VRB03KT P6SM OVC009
     FM221600 35003KT P6SM BKN025
     FM221700 34004KT P6SM SCT025 SCT050
     FM230300 VRB03KT P6SM FEW030=



000
FTUS43 KJKL 221400 AAA
TAFLOZ
TAF AMD
KLOZ 221401Z 2214/2312 36003KT P6SM BKN014 BKN035
     FM221500 02005KT P6SM SCT045
     FM230300 03003KT P6SM FEW030=



000
FTUS43 KJKL 221300 AAA
TAFJKL
TAF AMD
KJKL 221359Z 2214/2312 VRB03KT P6SM OVC007
     FM221500 35003KT P6SM BKN025
     FM221700 34004KT P6SM SCT025 SCT050
     FM230300 VRB03KT P6SM FEW030=



000
FTUS43 KJKL 221100
TAFJKL
TAF
KJKL 221125Z 2212/2312 VRB03KT P6SM BKN015 BKN035
     FM221500 35003KT P6SM BKN025
     FM221700 34004KT P6SM SCT025 SCT050
     FM230300 VRB03KT P6SM FEW030=



000
FTUS43 KJKL 221100
TAFLOZ
TAF
KLOZ 221125Z 2212/2312 36003KT P6SM BKN035
     FM221500 02005KT P6SM SCT045
     FM230300 03003KT P6SM FEW030=



000
FTUS43 KJKL 221100
TAFSME
TAF
KSME 221125Z 2212/2312 01003KT P6SM SCT040
     FM221500 04004KT P6SM SCT045
     FM230300 00000KT P6SM FEW030=



000
FTUS43 KJKL 220900 AAA
TAFSME
TAF AMD
KSME 220936Z 2210/2306 03004KT P6SM FEW040
     FM221100 01003KT P6SM SCT015 BKN040
     FM221300 02003KT P6SM OVC025
     FM221600 03004KT P6SM SCT025 BKN035
     FM230300 00000KT P6SM BKN030=



000
FTUS43 KJKL 220900 AAA
TAFSME
TAF AMD
KSME 220936Z 2210/2306 03004KT P6SM FEW040
     FM221100 01003KT P6SM SCT015 BKN040
     FM221300 02003KT P6SM OVC025
     FM221600 03004KT P6SM SCT025 BKN035
     FM230300 00000KT P6SM BKN030=



000
FTUS43 KJKL 220800 AAA
TAFJKL
TAF AMD
KJKL 220842Z 2209/2306 34005KT P6SM BKN040
     FM221000 35003KT P6SM OVC015
     FM221500 35003KT P6SM BKN025
     FM221800 33004KT P6SM SCT025 BKN035
     FM230300 00000KT P6SM BKN030=



000
FTUS43 KJKL 220500
TAFJKL
TAF
KJKL 220530Z 2206/2306 34005KT P6SM BKN030
     FM221000 35003KT P6SM OVC015
     FM221500 35003KT P6SM BKN025
     FM221800 33004KT P6SM SCT025 BKN035
     FM230300 00000KT P6SM BKN030=



000
FTUS43 KJKL 220500
TAFSME
TAF
KSME 220530Z 2206/2306 01004KT P6SM SCT035 BKN050
     FM220900 35004KT P6SM OVC025
     FM221100 01003KT P6SM OVC015
     FM221300 02003KT P6SM OVC025
     FM221600 03004KT P6SM SCT025 BKN035
     FM230300 00000KT P6SM BKN030=



000
FTUS43 KJKL 220500
TAFLOZ
TAF
KLOZ 220530Z 2206/2306 35005KT P6SM SCT035 BKN050
     FM221000 35004KT P6SM OVC025
     FM221200 36003KT P6SM OVC015
     FM221400 35003KT P6SM OVC025
     FM221600 02005KT P6SM SCT025 BKN035
     FM230300 03003KT P6SM BKN030=



000
FTUS43 KJKL 220500
TAFSME
TAF
KSME 220530Z 2206/2306 01004KT P6SM SCT035 BKN050
     FM220900 35004KT P6SM OVC025
     FM221100 01003KT P6SM OVC015
     FM221300 02003KT P6SM OVC025
     FM221600 03004KT P6SM SCT025 BKN035
     FM230300 00000KT P6SM BKN030=



000
FTUS43 KJKL 220500
TAFLOZ
TAF
KLOZ 220530Z 2206/2306 35005KT P6SM SCT035 BKN050
     FM221000 35004KT P6SM OVC025
     FM221200 36003KT P6SM OVC015
     FM221400 35003KT P6SM OVC025
     FM221600 02005KT P6SM SCT025 BKN035
     FM230300 03003KT P6SM BKN030=



000
FTUS43 KJKL 220500
TAFJKL
TAF
KJKL 220530Z 2206/2306 34005KT P6SM BKN030
     FM221000 35003KT P6SM OVC015
     FM221500 35003KT P6SM BKN025
     FM221800 33004KT P6SM SCT025 BKN035
     FM230300 00000KT P6SM BKN030=



000
FTUS43 KJKL 212300
TAFLOZ
TAF
KLOZ 212338Z 2200/2224 35005KT P6SM SCT035 BKN050
     FM220900 35004KT P6SM OVC025
     FM221100 35003KT P6SM OVC015
     FM221400 35003KT P6SM OVC025
     FM221600 33004KT P6SM SCT025 BKN050=



000
FTUS43 KJKL 212300
TAFJKL
TAF
KJKL 212338Z 2200/2224 34005KT P6SM BKN035 OVC050
     FM220700 35004KT P6SM OVC025
     FM221000 35003KT P6SM OVC015
     FM221800 33004KT P6SM SCT025 BKN050=



000
FTUS43 KJKL 212300
TAFSME
TAF
KSME 212338Z 2200/2224 01004KT P6SM SCT035 BKN050
     FM220900 35004KT P6SM OVC025
     FM221100 35003KT P6SM OVC015
     FM221300 35003KT P6SM OVC025
     FM221500 33004KT P6SM SCT025 BKN050=



000
FTUS43 KJKL 211700 CCA
TAFLOZ
TAF COR
KLOZ 211746Z 2118/2218 32008KT P6SM SCT035 BKN050
     FM220000 VRB03KT P6SM FEW030 SCT050
     FM220900 36003KT 4SM BR BKN050
     FM221300 36005KT P6SM BKN050=



000
FTUS43 KJKL 211700 CCA
TAFLOZ
TAF COR
KLOZ 211746Z 2118/2218 32008KT P6SM SCT035 BKN050
     FM220000 VRB03KT P6SM FEW030 SCT050
     FM220900 36003KT 4SM BR BKN050
     FM221300 36005KT P6SM BKN050=



000
FTUS43 KJKL 211700 CCA
TAFSME
TAF COR
KSME 211746Z 2118/2218 34008KT P6SM SCT035 BKN050
     FM220000 VRB03KT P6SM FEW030 SCT050
     FM220900 36003KT 4SM BR BKN050
     FM221300 36005KT P6SM BKN050=



000
FTUS43 KJKL 211700 CCA
TAFSME
TAF COR
KSME 211746Z 2118/2218 34008KT P6SM SCT035 BKN050
     FM220000 VRB03KT P6SM FEW030 SCT050
     FM220900 36003KT 4SM BR BKN050
     FM221300 36005KT P6SM BKN050=



000
FTUS43 KJKL 211700
TAFSME
TAF
KSME 211736Z 2118/2218 33005KT P6SM SCT035 BKN050
     FM220000 00000KT P6SM FEW030 SCT050
     FM220900 36003KT 4SM BR BKN050
     FM221300 36005KT P6SM BKN050=



000
FTUS43 KJKL 211700
TAFLOZ
TAF
KLOZ 211736Z 2118/2218 32006KT P6SM SCT035 BKN050
     FM220000 00000KT P6SM FEW030 SCT050
     FM220900 36003KT 4SM BR BKN050
     FM221300 36005KT P6SM BKN050=



000
FTUS43 KJKL 211700
TAFJKL
TAF
KJKL 211736Z 2118/2218 30006KT P6SM BKN035 OVC050
     FM220600 35005KT P6SM -DZ OVC019
     FM221500 33002KT P6SM OVC050=



000
FTUS43 KJKL 211400 AAC
TAFJKL
TAF AMD
KJKL 211409Z 2114/2212 VRB03KT 6SM BR SCT035
      TEMPO 2114/2115 VRB03KT OVC004
     FM211500 25003KT P6SM BKN035 BKN050
     FM211800 30006KT P6SM BKN040
     FM220600 33003KT P6SM SCT030=



000
FTUS43 KJKL 211300 AAB
TAFJKL
TAF AMD
KJKL 211301Z 2113/2212 VRB03KT 6SM BR SCT035
      TEMPO 2113/2114 VRB03KT OVC004
     FM211400 25003KT P6SM BKN035 BKN050
     FM211800 30006KT P6SM BKN040
     FM220600 33003KT P6SM SCT030=



000
FTUS43 KJKL 211200 AAA
TAFSME
TAF AMD
KSME 211222Z 2112/2212 00000KT 3SM BR SCT005
      TEMPO 2112/2113 VRB03KT 1/4SM FG OVC004
     FM211330 30004KT 6SM BR SCT030 BKN050
     FM211800 33005KT P6SM BKN050
     FM220000 00000KT P6SM FEW030 SCT050=



000
FTUS43 KJKL 211200 AAA
TAFJKL
TAF AMD
KJKL 211221Z 2112/2212 VRB03KT 6SM BR SCT035
      TEMPO 2112/2113 VRB03KT BKN006 BKN070
     FM211300 25003KT P6SM BKN035 BKN050
     FM211800 30006KT P6SM BKN040
     FM220600 33003KT P6SM SCT030=



000
FTUS43 KJKL 211100
TAFJKL
TAF
KJKL 211132Z 2112/2212 VRB03KT 6SM BR SCT035
     FM211300 25003KT P6SM BKN035 BKN050
     FM211800 30006KT P6SM BKN040
     FM220600 33003KT P6SM SCT030=



000
FTUS43 KJKL 211100
TAFLOZ
TAF
KLOZ 211132Z 2112/2212 00000KT 1SM BR BKN005
     FM211300 31008KT P6SM SCT035 BKN050
     FM211800 32006KT P6SM BKN050
     FM220000 00000KT P6SM FEW030 SCT050=



000
FTUS43 KJKL 211100
TAFJKL
TAF
KJKL 211132Z 2112/2212 VRB03KT 6SM BR SCT035
     FM211300 25003KT P6SM BKN035 BKN050
     FM211800 30006KT P6SM BKN040
     FM220600 33003KT P6SM SCT030=



000
FTUS43 KJKL 211100
TAFLOZ
TAF
KLOZ 211132Z 2112/2212 00000KT 1SM BR BKN005
     FM211300 31008KT P6SM SCT035 BKN050
     FM211800 32006KT P6SM BKN050
     FM220000 00000KT P6SM FEW030 SCT050=



000
FTUS43 KJKL 211100
TAFSME
TAF
KSME 211132Z 2112/2212 00000KT 3SM BR SCT005
     FM211300 30004KT 6SM BR SCT030 BKN050
     FM211800 33005KT P6SM BKN050
     FM220000 00000KT P6SM FEW030 SCT050=



000
FTUS43 KJKL 211100
TAFSME
TAF
KSME 211132Z 2112/2212 00000KT 3SM BR SCT005
     FM211300 30004KT 6SM BR SCT030 BKN050
     FM211800 33005KT P6SM BKN050
     FM220000 00000KT P6SM FEW030 SCT050=



000
FTUS43 KJKL 210800 AAA
TAFSME
TAF AMD
KSME 210821Z 2108/2206 00000KT 1SM BR VV005
     FM211200 32003KT 6SM BR BKN035
     FM211500 32006KT P6SM BKN050
     FM220000 00000KT P6SM FEW050=



000
FTUS43 KJKL 210500
TAFJKL
TAF
KJKL 210540Z 2106/2206 27003KT P6SM VCSH SCT035 BKN080
     FM210800 24003KT P6SM FEW035 SCT060
     FM211200 27003KT 6SM BR BKN025
     FM211800 30003KT P6SM BKN040=



000
FTUS43 KJKL 210500
TAFLOZ
TAF
KLOZ 210540Z 2106/2206 VRB03KT P6SM VCSH SCT035 BKN050 BKN100
     FM210900 00000KT P6SM SCT035 SCT060
     FM211200 30003KT 5SM BR SCT015 SCT060
     FM211500 32006KT P6SM BKN050
     FM220000 00000KT P6SM SCT050=



000
FTUS43 KJKL 210500
TAFSME
TAF
KSME 210540Z 2106/2206 00000KT P6SM SCT035 BKN050 BKN100
     FM210900 00000KT 5SM BR SCT035 SCT060
     FM211200 32003KT 6SM BR BKN035
     FM211500 32006KT P6SM BKN050
     FM220000 00000KT P6SM FEW050=



000
FTUS43 KJKL 210400 AAA
TAFJKL
TAF AMD
KJKL 210449Z 2105/2124 27003KT P6SM VCSH BKN025
     FM210900 24002KT 5SM BR OVC015
     FM211900 30003KT P6SM BKN050=



000
FTUS43 KJKL 202300
TAFSME
TAF
KSME 202340Z 2100/2124 24005KT P6SM VCSH SCT050 BKN100
     FM210700 VRB03KT P6SM VCSH BKN025
     FM210900 00000KT 4SM BR OVC015
     FM211700 31006KT P6SM BKN050=



000
FTUS43 KJKL 202300
TAFLOZ
TAF
KLOZ 202340Z 2100/2124 24005KT P6SM VCSH SCT050 BKN100
     FM210600 VRB03KT P6SM VCSH BKN025
     FM210900 00000KT 4SM BR OVC015
     FM211800 31006KT P6SM BKN050=



000
FTUS43 KJKL 202300
TAFJKL
TAF
KJKL 202340Z 2100/2124 23007KT P6SM VCSH SCT050 BKN100
     FM210600 27003KT P6SM VCSH BKN025
     FM210900 24002KT 5SM BR OVC015
     FM211900 30003KT P6SM BKN050=



000
FTUS43 KJKL 201700 RRA
TAFJKL
TAF
KJKL 201741Z 2018/2118 23007KT P6SM VCSH SCT050 OVC070
     FM210600 27003KT P6SM VCSH BKN035
     FM210900 24002KT 5SM BR OVC015
     FM211400 30003KT P6SM BKN050=



000
FTUS43 KJKL 201700 RRA
TAFSME
TAF
KSME 201741Z 2018/2118 24005KT P6SM VCSH FEW035 SCT080 OVC110
     FM210600 VRB03KT P6SM VCSH BKN035
     FM210800 00000KT 4SM BR OVC015
     FM211400 31006KT P6SM BKN050=



000
FTUS43 KJKL 201700 RRA
TAFLOZ
TAF
KLOZ 201741Z 2018/2118 24005KT P6SM VCSH FEW035 BKN080 OVC120
     FM210600 VRB03KT P6SM VCSH BKN035
     FM210800 00000KT 4SM BR OVC015
     FM211400 31006KT P6SM BKN050=



000
FTUS43 KJKL 201100
TAFSME
TAF
KSME 201126Z 2012/2112 24005KT P6SM FEW035 SCT080 BKN250
     FM210000 24003KT P6SM SCT035 BKN070
     FM210600 VRB03KT P6SM SCT030=



000
FTUS43 KJKL 201100
TAFJKL
TAF
KJKL 201126Z 2012/2112 VRB03KT P6SM SCT250
     FM201600 23007KT P6SM VCSH FEW035 SCT080 BKN250
     FM210000 23003KT P6SM VCSH SCT040 BKN070
     FM210600 27003KT P6SM VCSH BKN030=



000
FTUS43 KJKL 201100
TAFLOZ
TAF
KLOZ 201126Z 2012/2112 24005KT P6SM FEW035 SCT080 BKN250
     FM210000 23003KT P6SM SCT040 BKN070
     FM210600 VRB03KT P6SM BKN030=



000
FTUS43 KJKL 201000 AAA
TAFSME
TAF AMD
KSME 201005Z 2010/2106 00000KT P6SM SCT250
      TEMPO 2010/2012 5SM BR BKN250
     FM201200 24005KT P6SM FEW035 SCT080 BKN250
     FM210000 24003KT P6SM SCT035 BKN070=



000
FTUS43 KJKL 201000 AAA
TAFSME
TAF AMD
KSME 201005Z 2010/2106 00000KT P6SM SCT250
      TEMPO 2010/2012 5SM BR BKN250
     FM201200 24005KT P6SM FEW035 SCT080 BKN250
     FM210000 24003KT P6SM SCT035 BKN070=



000
FTUS43 KJKL 201000 AAA
TAFLOZ
TAF AMD
KLOZ 201004Z 2010/2106 00000KT P6SM SCT250
      TEMPO 2010/2012 00000KT 5SM BR BKN250
     FM201200 24005KT P6SM FEW035 SCT080 BKN250
     FM210000 23003KT P6SM SCT040 BKN070=



000
FTUS43 KJKL 201000 AAA
TAFLOZ
TAF AMD
KLOZ 201004Z 2010/2106 00000KT P6SM SCT250
      TEMPO 2010/2012 00000KT 5SM BR BKN250
     FM201200 24005KT P6SM FEW035 SCT080 BKN250
     FM210000 23003KT P6SM SCT040 BKN070=



    US Dept of Commerce
    National Oceanic and Atmospheric Administration
    National Weather Service
    1325 East West Highway
    Silver Spring, MD 20910
    Page Author: NWS Internet Services Team
Disclaimer
Information Quality
Credits
Glossary
Privacy Policy
Freedom of Information Act (FOIA)
About Us
Career Opportunities